Archival Weather

Chicago O'Hare International

Chicago, Illinois (KORD)

Report from: Sunday, December 25, 2022 11:51 AM CST
Current time: Monday, June 24, 2024 5:31 AM CDT

Current weather – Weather history – Daily summaries
Weather forecast

Temperature-12.2°C (10.0°F)
Wind chill-21.4°C (-6.5°F)
Dew point-19.4°C (-2.9°F)
Winds 13 kts (6.7 m/s, 15 mph) West-Southwest (250°)
Visibility10 mi. (16.1 km)
Clouds Few clouds 3,000 ft. (914 m)
Few clouds 25,000 ft. (7,620 m)
Altimeter30.02 in.Hg (1017 mB)
Relative humidity55 %
Density altitude-3,559 ft. (-1,085 m)
Sea-level pressure101.8 kPa (1018 mB, 30.06 in.Hg)
Max temp last 6 hours-12.2°C (10.0°F)
Min temp last 6 hours-16.7°C (1.9°F)
Snow depth1.00 in. (25 mm)
Remarks Corrected report
System requires maintenance
Automated weather observing station with precipitation discriminator
Pressure falling more quickly
Flight conditions Visual Meteorological Conditions
Raw dataKORD 251751Z COR 25013KT 10SM FEW030 FEW250 M12/M19 A3002 RMK AO2 SLP181 T11221194 4/001 11122 21167 58012 $
An error has occurred. This application may no longer respond until reloaded. Reload 🗙